sensor_id;sensor_type;location;lat;lon;timestamp;P1;durP1;ratioP1;P2;durP2;ratioP2
13208;SDS011;6669;42.678;23.332;2023-05-16T00:01:28;10.63;;;9.65;;
13208;SDS011;6669;42.678;23.332;2023-05-16T00:03:56;10.18;;;9.07;;
13208;SDS011;6669;42.678;23.332;2023-05-16T00:06:24;10.40;;;9.45;;
13208;SDS011;6669;42.678;23.332;2023-05-16T00:08:53;10.30;;;9.40;;
13208;SDS011;6669;42.678;23.332;2023-05-16T00:11:21;10.70;;;9.60;;
13208;SDS011;6669;42.678;23.332;2023-05-16T00:13:49;11.82;;;9.75;;
13208;SDS011;6669;42.678;23.332;2023-05-16T00:16:20;9.88;;;8.77;;
13208;SDS011;6669;42.678;23.332;2023-05-16T00:18:51;11.80;;;9.90;;
13208;SDS011;6669;42.678;23.332;2023-05-16T00:21:19;10.85;;;9.57;;
13208;SDS011;6669;42.678;23.332;2023-05-16T00:23:49;10.10;;;9.10;;
13208;SDS011;6669;42.678;23.332;2023-05-16T00:26:19;11.10;;;9.43;;
13208;SDS011;6669;42.678;23.332;2023-05-16T00:28:47;10.77;;;9.30;;
13208;SDS011;6669;42.678;23.332;2023-05-16T00:31:15;9.60;;;8.65;;
13208;SDS011;6669;42.678;23.332;2023-05-16T00:33:43;10.20;;;9.23;;
13208;SDS011;6669;42.678;23.332;2023-05-16T00:36:11;10.85;;;9.68;;
13208;SDS011;6669;42.678;23.332;2023-05-16T00:38:39;9.38;;;8.57;;
13208;SDS011;6669;42.678;23.332;2023-05-16T00:41:07;9.52;;;8.68;;
13208;SDS011;6669;42.678;23.332;2023-05-16T00:43:36;10.20;;;9.20;;
13208;SDS011;6669;42.678;23.332;2023-05-16T00:46:05;9.88;;;8.88;;
13208;SDS011;6669;42.678;23.332;2023-05-16T00:48:32;11.43;;;8.75;;
13208;SDS011;6669;42.678;23.332;2023-05-16T00:51:01;11.02;;;9.68;;
13208;SDS011;6669;42.678;23.332;2023-05-16T00:53:29;10.93;;;9.82;;
13208;SDS011;6669;42.678;23.332;2023-05-16T00:55:57;10.75;;;9.65;;
13208;SDS011;6669;42.678;23.332;2023-05-16T00:58:25;10.80;;;9.68;;
13208;SDS011;6669;42.678;23.332;2023-05-16T01:00:55;9.93;;;9.00;;
13208;SDS011;6669;42.678;23.332;2023-05-16T01:03:23;11.25;;;9.00;;
13208;SDS011;6669;42.678;23.332;2023-05-16T01:05:52;11.27;;;9.55;;
13208;SDS011;6669;42.678;23.332;2023-05-16T01:08:20;11.07;;;10.07;;
13208;SDS011;6669;42.678;23.332;2023-05-16T01:10:49;10.20;;;9.30;;
13208;SDS011;6669;42.678;23.332;2023-05-16T01:13:27;11.15;;;9.93;;
13208;SDS011;6669;42.678;23.332;2023-05-16T01:16:04;11.68;;;9.40;;
13208;SDS011;6669;42.678;23.332;2023-05-16T01:18:41;13.13;;;10.15;;
13208;SDS011;6669;42.678;23.332;2023-05-16T01:21:17;10.90;;;9.70;;
13208;SDS011;6669;42.678;23.332;2023-05-16T01:23:59;12.07;;;10.93;;
13208;SDS011;6669;42.678;23.332;2023-05-16T01:26:37;10.23;;;9.23;;
13208;SDS011;6669;42.678;23.332;2023-05-16T01:29:09;10.77;;;9.70;;
13208;SDS011;6669;42.678;23.332;2023-05-16T01:31:38;12.77;;;10.35;;
13208;SDS011;6669;42.678;23.332;2023-05-16T01:34:06;11.40;;;10.30;;
13208;SDS011;6669;42.678;23.332;2023-05-16T01:36:35;10.75;;;8.50;;
13208;SDS011;6669;42.678;23.332;2023-05-16T01:39:13;10.57;;;9.48;;
13208;SDS011;6669;42.678;23.332;2023-05-16T01:41:49;11.05;;;9.95;;
13208;SDS011;6669;42.678;23.332;2023-05-16T01:44:23;12.25;;;9.85;;
13208;SDS011;6669;42.678;23.332;2023-05-16T01:46:56;10.32;;;9.43;;
13208;SDS011;6669;42.678;23.332;2023-05-16T01:49:29;10.57;;;9.32;;
13208;SDS011;6669;42.678;23.332;2023-05-16T01:52:04;10.30;;;9.40;;
13208;SDS011;6669;42.678;23.332;2023-05-16T01:54:37;9.70;;;8.63;;
13208;SDS011;6669;42.678;23.332;2023-05-16T01:57:09;9.07;;;8.23;;
13208;SDS011;6669;42.678;23.332;2023-05-16T01:59:38;8.85;;;8.00;;
13208;SDS011;6669;42.678;23.332;2023-05-16T02:02:08;9.00;;;8.10;;
13208;SDS011;6669;42.678;23.332;2023-05-16T02:04:36;9.00;;;8.07;;
13208;SDS011;6669;42.678;23.332;2023-05-16T02:07:04;10.05;;;7.95;;
13208;SDS011;6669;42.678;23.332;2023-05-16T02:09:32;9.27;;;8.38;;
13208;SDS011;6669;42.678;23.332;2023-05-16T02:12:00;8.13;;;7.35;;
13208;SDS011;6669;42.678;23.332;2023-05-16T02:14:31;8.43;;;7.38;;
13208;SDS011;6669;42.678;23.332;2023-05-16T02:16:59;9.07;;;7.45;;
13208;SDS011;6669;42.678;23.332;2023-05-16T02:19:27;8.20;;;7.03;;
13208;SDS011;6669;42.678;23.332;2023-05-16T02:21:55;12.10;;;7.30;;
13208;SDS011;6669;42.678;23.332;2023-05-16T02:24:23;7.35;;;6.65;;
13208;SDS011;6669;42.678;23.332;2023-05-16T02:26:51;8.00;;;7.20;;
13208;SDS011;6669;42.678;23.332;2023-05-16T02:29:19;8.27;;;7.32;;
13208;SDS011;6669;42.678;23.332;2023-05-16T02:31:48;7.75;;;7.05;;
13208;SDS011;6669;42.678;23.332;2023-05-16T02:34:16;7.40;;;6.70;;
13208;SDS011;6669;42.678;23.332;2023-05-16T02:36:44;7.18;;;6.57;;
13208;SDS011;6669;42.678;23.332;2023-05-16T02:39:12;7.38;;;6.53;;
13208;SDS011;6669;42.678;23.332;2023-05-16T02:41:40;7.50;;;6.70;;
13208;SDS011;6669;42.678;23.332;2023-05-16T02:44:07;7.78;;;7.07;;
13208;SDS011;6669;42.678;23.332;2023-05-16T02:46:36;8.52;;;6.82;;
13208;SDS011;6669;42.678;23.332;2023-05-16T02:49:05;7.80;;;7.00;;
13208;SDS011;6669;42.678;23.332;2023-05-16T02:51:33;6.68;;;6.07;;
13208;SDS011;6669;42.678;23.332;2023-05-16T02:54:02;7.85;;;7.05;;
13208;SDS011;6669;42.678;23.332;2023-05-16T02:56:30;13.02;;;11.45;;
13208;SDS011;6669;42.678;23.332;2023-05-16T02:58:59;10.88;;;9.80;;
13208;SDS011;6669;42.678;23.332;2023-05-16T03:01:26;9.05;;;6.82;;
13208;SDS011;6669;42.678;23.332;2023-05-16T03:03:54;6.85;;;6.10;;
13208;SDS011;6669;42.678;23.332;2023-05-16T03:06:24;7.32;;;6.65;;
13208;SDS011;6669;42.678;23.332;2023-05-16T03:08:52;7.25;;;6.57;;
13208;SDS011;6669;42.678;23.332;2023-05-16T03:11:20;6.93;;;6.20;;
13208;SDS011;6669;42.678;23.332;2023-05-16T03:13:49;7.15;;;6.45;;
13208;SDS011;6669;42.678;23.332;2023-05-16T03:16:17;7.72;;;6.35;;
13208;SDS011;6669;42.678;23.332;2023-05-16T03:18:46;7.28;;;6.15;;
13208;SDS011;6669;42.678;23.332;2023-05-16T03:21:14;7.20;;;6.25;;
13208;SDS011;6669;42.678;23.332;2023-05-16T03:23:43;9.35;;;6.70;;
13208;SDS011;6669;42.678;23.332;2023-05-16T03:26:11;6.45;;;5.90;;
13208;SDS011;6669;42.678;23.332;2023-05-16T03:28:39;7.75;;;6.90;;
13208;SDS011;6669;42.678;23.332;2023-05-16T03:31:07;8.93;;;6.55;;
13208;SDS011;6669;42.678;23.332;2023-05-16T03:33:35;7.53;;;6.57;;
13208;SDS011;6669;42.678;23.332;2023-05-16T03:36:03;21.20;;;18.40;;
13208;SDS011;6669;42.678;23.332;2023-05-16T03:38:31;9.80;;;7.30;;
13208;SDS011;6669;42.678;23.332;2023-05-16T03:41:00;6.75;;;6.15;;
13208;SDS011;6669;42.678;23.332;2023-05-16T03:43:28;7.60;;;6.35;;
13208;SDS011;6669;42.678;23.332;2023-05-16T03:45:56;8.75;;;6.95;;
13208;SDS011;6669;42.678;23.332;2023-05-16T03:48:24;7.90;;;7.18;;
13208;SDS011;6669;42.678;23.332;2023-05-16T03:50:52;7.18;;;6.57;;
13208;SDS011;6669;42.678;23.332;2023-05-16T03:53:20;7.28;;;6.68;;
13208;SDS011;6669;42.678;23.332;2023-05-16T03:55:48;8.57;;;6.45;;
13208;SDS011;6669;42.678;23.332;2023-05-16T03:58:18;8.27;;;7.03;;
13208;SDS011;6669;42.678;23.332;2023-05-16T04:00:46;7.40;;;6.60;;
13208;SDS011;6669;42.678;23.332;2023-05-16T04:03:14;18.17;;;15.32;;
13208;SDS011;6669;42.678;23.332;2023-05-16T04:05:42;7.47;;;6.78;;
13208;SDS011;6669;42.678;23.332;2023-05-16T04:08:10;9.82;;;6.90;;
13208;SDS011;6669;42.678;23.332;2023-05-16T04:10:38;8.38;;;7.60;;
13208;SDS011;6669;42.678;23.332;2023-05-16T04:13:06;8.82;;;7.93;;
13208;SDS011;6669;42.678;23.332;2023-05-16T04:15:38;8.48;;;7.68;;
13208;SDS011;6669;42.678;23.332;2023-05-16T04:18:06;8.13;;;7.35;;
13208;SDS011;6669;42.678;23.332;2023-05-16T04:20:35;7.90;;;7.03;;
13208;SDS011;6669;42.678;23.332;2023-05-16T04:23:03;8.38;;;6.93;;
13208;SDS011;6669;42.678;23.332;2023-05-16T04:25:31;9.35;;;6.82;;
13208;SDS011;6669;42.678;23.332;2023-05-16T04:27:59;8.15;;;7.28;;
13208;SDS011;6669;42.678;23.332;2023-05-16T04:30:27;8.27;;;7.35;;
13208;SDS011;6669;42.678;23.332;2023-05-16T04:32:57;8.95;;;8.15;;
13208;SDS011;6669;42.678;23.332;2023-05-16T04:35:25;10.07;;;8.20;;
13208;SDS011;6669;42.678;23.332;2023-05-16T04:37:54;10.98;;;8.40;;
13208;SDS011;6669;42.678;23.332;2023-05-16T04:40:24;9.15;;;8.25;;
13208;SDS011;6669;42.678;23.332;2023-05-16T04:42:53;9.50;;;7.45;;
13208;SDS011;6669;42.678;23.332;2023-05-16T04:45:21;9.32;;;7.70;;
13208;SDS011;6669;42.678;23.332;2023-05-16T04:47:49;8.80;;;7.90;;
13208;SDS011;6669;42.678;23.332;2023-05-16T04:50:19;11.27;;;8.23;;
13208;SDS011;6669;42.678;23.332;2023-05-16T04:52:47;8.10;;;7.30;;
13208;SDS011;6669;42.678;23.332;2023-05-16T04:55:15;9.48;;;8.45;;
13208;SDS011;6669;42.678;23.332;2023-05-16T04:57:43;8.80;;;7.90;;
13208;SDS011;6669;42.678;23.332;2023-05-16T05:00:11;10.75;;;8.68;;
13208;SDS011;6669;42.678;23.332;2023-05-16T05:02:41;9.60;;;8.10;;
13208;SDS011;6669;42.678;23.332;2023-05-16T05:05:09;8.93;;;8.13;;
13208;SDS011;6669;42.678;23.332;2023-05-16T05:07:39;8.88;;;8.05;;
13208;SDS011;6669;42.678;23.332;2023-05-16T05:10:08;12.98;;;8.40;;
13208;SDS011;6669;42.678;23.332;2023-05-16T05:12:37;10.50;;;8.38;;
13208;SDS011;6669;42.678;23.332;2023-05-16T05:15:05;10.95;;;8.45;;
13208;SDS011;6669;42.678;23.332;2023-05-16T05:17:34;10.95;;;8.35;;
13208;SDS011;6669;42.678;23.332;2023-05-16T05:20:03;9.65;;;8.75;;
13208;SDS011;6669;42.678;23.332;2023-05-16T05:22:34;12.45;;;8.73;;
13208;SDS011;6669;42.678;23.332;2023-05-16T05:25:03;10.27;;;8.85;;
13208;SDS011;6669;42.678;23.332;2023-05-16T05:27:32;9.20;;;8.18;;
13208;SDS011;6669;42.678;23.332;2023-05-16T05:30:00;11.65;;;8.45;;
13208;SDS011;6669;42.678;23.332;2023-05-16T05:32:28;9.07;;;8.07;;
13208;SDS011;6669;42.678;23.332;2023-05-16T05:34:56;10.90;;;8.55;;
13208;SDS011;6669;42.678;23.332;2023-05-16T05:37:25;10.13;;;8.27;;
13208;SDS011;6669;42.678;23.332;2023-05-16T05:39:53;9.25;;;8.35;;
13208;SDS011;6669;42.678;23.332;2023-05-16T05:42:22;9.35;;;8.13;;
13208;SDS011;6669;42.678;23.332;2023-05-16T05:44:50;13.20;;;9.50;;
13208;SDS011;6669;42.678;23.332;2023-05-16T05:47:18;10.77;;;8.25;;
13208;SDS011;6669;42.678;23.332;2023-05-16T05:49:47;9.73;;;8.45;;
13208;SDS011;6669;42.678;23.332;2023-05-16T05:52:15;9.75;;;8.85;;
13208;SDS011;6669;42.678;23.332;2023-05-16T05:54:43;8.82;;;8.02;;
13208;SDS011;6669;42.678;23.332;2023-05-16T05:57:11;11.55;;;9.10;;
13208;SDS011;6669;42.678;23.332;2023-05-16T05:59:40;10.35;;;8.43;;
13208;SDS011;6669;42.678;23.332;2023-05-16T06:02:08;9.73;;;8.23;;
13208;SDS011;6669;42.678;23.332;2023-05-16T06:04:36;9.60;;;8.55;;
13208;SDS011;6669;42.678;23.332;2023-05-16T06:07:04;11.25;;;8.52;;
13208;SDS011;6669;42.678;23.332;2023-05-16T06:09:32;9.23;;;8.15;;
13208;SDS011;6669;42.678;23.332;2023-05-16T06:12:00;9.15;;;8.25;;
13208;SDS011;6669;42.678;23.332;2023-05-16T06:14:29;9.77;;;7.40;;
13208;SDS011;6669;42.678;23.332;2023-05-16T06:16:58;8.85;;;8.02;;
13208;SDS011;6669;42.678;23.332;2023-05-16T06:19:26;8.35;;;7.50;;
13208;SDS011;6669;42.678;23.332;2023-05-16T06:21:54;12.75;;;7.28;;
13208;SDS011;6669;42.678;23.332;2023-05-16T06:24:22;7.95;;;7.25;;
13208;SDS011;6669;42.678;23.332;2023-05-16T06:26:50;7.70;;;7.00;;
13208;SDS011;6669;42.678;23.332;2023-05-16T06:29:18;9.25;;;8.18;;
13208;SDS011;6669;42.678;23.332;2023-05-16T06:31:46;8.60;;;7.75;;
13208;SDS011;6669;42.678;23.332;2023-05-16T06:34:17;8.73;;;6.75;;
13208;SDS011;6669;42.678;23.332;2023-05-16T06:36:49;9.73;;;7.38;;
13208;SDS011;6669;42.678;23.332;2023-05-16T06:39:17;12.00;;;7.18;;
13208;SDS011;6669;42.678;23.332;2023-05-16T06:41:45;8.25;;;7.20;;
13208;SDS011;6669;42.678;23.332;2023-05-16T06:44:13;8.05;;;6.97;;
13208;SDS011;6669;42.678;23.332;2023-05-16T06:46:41;8.52;;;6.75;;
13208;SDS011;6669;42.678;23.332;2023-05-16T06:49:09;8.35;;;6.25;;
13208;SDS011;6669;42.678;23.332;2023-05-16T06:51:38;6.80;;;6.10;;
13208;SDS011;6669;42.678;23.332;2023-05-16T06:54:06;8.18;;;6.35;;
13208;SDS011;6669;42.678;23.332;2023-05-16T06:56:35;9.40;;;6.38;;
13208;SDS011;6669;42.678;23.332;2023-05-16T06:59:03;6.32;;;5.63;;
13208;SDS011;6669;42.678;23.332;2023-05-16T07:01:31;6.85;;;5.75;;
13208;SDS011;6669;42.678;23.332;2023-05-16T07:03:59;8.32;;;6.63;;
13208;SDS011;6669;42.678;23.332;2023-05-16T07:06:27;7.78;;;5.88;;
13208;SDS011;6669;42.678;23.332;2023-05-16T07:08:56;11.93;;;6.15;;
13208;SDS011;6669;42.678;23.332;2023-05-16T07:11:24;7.45;;;5.85;;
13208;SDS011;6669;42.678;23.332;2023-05-16T07:13:52;7.18;;;5.95;;
13208;SDS011;6669;42.678;23.332;2023-05-16T07:16:20;6.35;;;5.63;;
13208;SDS011;6669;42.678;23.332;2023-05-16T07:18:49;6.03;;;5.45;;
13208;SDS011;6669;42.678;23.332;2023-05-16T07:21:17;8.95;;;5.80;;
13208;SDS011;6669;42.678;23.332;2023-05-16T07:23:50;6.57;;;5.97;;
13208;SDS011;6669;42.678;23.332;2023-05-16T07:26:23;9.50;;;5.65;;
13208;SDS011;6669;42.678;23.332;2023-05-16T07:28:53;6.93;;;5.60;;
13208;SDS011;6669;42.678;23.332;2023-05-16T07:31:21;6.57;;;5.88;;
13208;SDS011;6669;42.678;23.332;2023-05-16T07:33:49;8.30;;;6.10;;
13208;SDS011;6669;42.678;23.332;2023-05-16T07:36:17;6.35;;;5.72;;
13208;SDS011;6669;42.678;23.332;2023-05-16T07:38:45;8.10;;;6.05;;
13208;SDS011;6669;42.678;23.332;2023-05-16T07:41:13;8.35;;;5.78;;
13208;SDS011;6669;42.678;23.332;2023-05-16T07:43:42;6.85;;;6.15;;
13208;SDS011;6669;42.678;23.332;2023-05-16T07:46:13;10.70;;;5.53;;
13208;SDS011;6669;42.678;23.332;2023-05-16T07:48:41;8.02;;;6.18;;
13208;SDS011;6669;42.678;23.332;2023-05-16T07:51:11;9.68;;;6.25;;
13208;SDS011;6669;42.678;23.332;2023-05-16T07:53:39;7.53;;;5.57;;
13208;SDS011;6669;42.678;23.332;2023-05-16T07:56:08;6.45;;;5.85;;
13208;SDS011;6669;42.678;23.332;2023-05-16T07:58:36;7.93;;;6.03;;
13208;SDS011;6669;42.678;23.332;2023-05-16T08:01:06;8.30;;;5.72;;
13208;SDS011;6669;42.678;23.332;2023-05-16T08:03:34;8.40;;;5.55;;
13208;SDS011;6669;42.678;23.332;2023-05-16T08:06:03;8.57;;;5.63;;
13208;SDS011;6669;42.678;23.332;2023-05-16T08:08:31;8.77;;;5.65;;
13208;SDS011;6669;42.678;23.332;2023-05-16T08:10:59;8.25;;;5.60;;
13208;SDS011;6669;42.678;23.332;2023-05-16T08:13:27;6.70;;;5.47;;
13208;SDS011;6669;42.678;23.332;2023-05-16T08:15:57;6.47;;;5.70;;
13208;SDS011;6669;42.678;23.332;2023-05-16T08:18:26;7.15;;;5.78;;
13208;SDS011;6669;42.678;23.332;2023-05-16T08:20:54;7.22;;;5.35;;
13208;SDS011;6669;42.678;23.332;2023-05-16T08:23:22;6.07;;;5.45;;
13208;SDS011;6669;42.678;23.332;2023-05-16T08:25:50;8.35;;;5.28;;
13208;SDS011;6669;42.678;23.332;2023-05-16T08:28:20;7.57;;;5.43;;
13208;SDS011;6669;42.678;23.332;2023-05-16T08:30:48;8.77;;;6.00;;
13208;SDS011;6669;42.678;23.332;2023-05-16T08:33:16;8.93;;;5.00;;
13208;SDS011;6669;42.678;23.332;2023-05-16T08:35:46;5.82;;;5.32;;
13208;SDS011;6669;42.678;23.332;2023-05-16T08:38:14;8.13;;;5.57;;
13208;SDS011;6669;42.678;23.332;2023-05-16T08:40:42;9.70;;;6.03;;
13208;SDS011;6669;42.678;23.332;2023-05-16T08:43:10;8.57;;;5.50;;
13208;SDS011;6669;42.678;23.332;2023-05-16T08:45:39;8.52;;;5.38;;
13208;SDS011;6669;42.678;23.332;2023-05-16T08:48:07;6.53;;;5.53;;
13208;SDS011;6669;42.678;23.332;2023-05-16T08:50:37;7.03;;;5.20;;
13208;SDS011;6669;42.678;23.332;2023-05-16T08:53:09;5.85;;;4.90;;
13208;SDS011;6669;42.678;23.332;2023-05-16T08:55:39;6.20;;;5.60;;
13208;SDS011;6669;42.678;23.332;2023-05-16T08:58:08;5.40;;;4.88;;
13208;SDS011;6669;42.678;23.332;2023-05-16T09:00:37;8.80;;;5.07;;
13208;SDS011;6669;42.678;23.332;2023-05-16T09:03:06;7.85;;;4.70;;
13208;SDS011;6669;42.678;23.332;2023-05-16T09:05:35;7.85;;;5.55;;
13208;SDS011;6669;42.678;23.332;2023-05-16T09:08:03;7.53;;;4.95;;
13208;SDS011;6669;42.678;23.332;2023-05-16T09:10:33;9.85;;;5.75;;
13208;SDS011;6669;42.678;23.332;2023-05-16T09:13:01;5.70;;;5.20;;
13208;SDS011;6669;42.678;23.332;2023-05-16T09:15:30;6.57;;;5.15;;
13208;SDS011;6669;42.678;23.332;2023-05-16T09:17:59;5.80;;;4.75;;
13208;SDS011;6669;42.678;23.332;2023-05-16T09:20:28;8.65;;;6.32;;
13208;SDS011;6669;42.678;23.332;2023-05-16T09:22:57;7.60;;;4.95;;
13208;SDS011;6669;42.678;23.332;2023-05-16T09:25:26;7.82;;;5.07;;
13208;SDS011;6669;42.678;23.332;2023-05-16T09:27:59;6.25;;;4.65;;
13208;SDS011;6669;42.678;23.332;2023-05-16T09:30:29;6.72;;;4.80;;
13208;SDS011;6669;42.678;23.332;2023-05-16T09:32:59;8.55;;;5.00;;
13208;SDS011;6669;42.678;23.332;2023-05-16T09:35:28;7.93;;;5.00;;
13208;SDS011;6669;42.678;23.332;2023-05-16T09:38:13;7.18;;;5.53;;
13208;SDS011;6669;42.678;23.332;2023-05-16T09:40:42;5.50;;;4.85;;
13208;SDS011;6669;42.678;23.332;2023-05-16T09:43:14;8.45;;;5.28;;
13208;SDS011;6669;42.678;23.332;2023-05-16T09:45:44;6.53;;;4.60;;
13208;SDS011;6669;42.678;23.332;2023-05-16T09:48:14;5.25;;;4.72;;
13208;SDS011;6669;42.678;23.332;2023-05-16T09:50:46;7.10;;;4.95;;
13208;SDS011;6669;42.678;23.332;2023-05-16T09:53:17;5.68;;;4.82;;
13208;SDS011;6669;42.678;23.332;2023-05-16T09:55:59;5.22;;;4.70;;
13208;SDS011;6669;42.678;23.332;2023-05-16T09:58:30;5.80;;;5.07;;
13208;SDS011;6669;42.678;23.332;2023-05-16T10:01:00;9.40;;;5.25;;
13208;SDS011;6669;42.678;23.332;2023-05-16T10:03:28;5.10;;;4.60;;
13208;SDS011;6669;42.678;23.332;2023-05-16T10:05:57;5.22;;;4.68;;
13208;SDS011;6669;42.678;23.332;2023-05-16T10:08:27;5.35;;;4.78;;
13208;SDS011;6669;42.678;23.332;2023-05-16T10:11:02;4.80;;;4.40;;
13208;SDS011;6669;42.678;23.332;2023-05-16T10:13:33;7.22;;;4.68;;
13208;SDS011;6669;42.678;23.332;2023-05-16T10:16:06;8.13;;;5.18;;
13208;SDS011;6669;42.678;23.332;2023-05-16T10:18:37;6.15;;;5.10;;
13208;SDS011;6669;42.678;23.332;2023-05-16T10:21:07;6.10;;;4.80;;
13208;SDS011;6669;42.678;23.332;2023-05-16T10:23:41;6.53;;;5.13;;
13208;SDS011;6669;42.678;23.332;2023-05-16T10:26:10;6.13;;;5.10;;
13208;SDS011;6669;42.678;23.332;2023-05-16T10:28:41;5.70;;;5.10;;
13208;SDS011;6669;42.678;23.332;2023-05-16T10:31:10;7.88;;;5.57;;
13208;SDS011;6669;42.678;23.332;2023-05-16T10:33:38;8.80;;;6.20;;
13208;SDS011;6669;42.678;23.332;2023-05-16T10:36:06;7.40;;;5.13;;
13208;SDS011;6669;42.678;23.332;2023-05-16T10:38:38;5.72;;;4.80;;
13208;SDS011;6669;42.678;23.332;2023-05-16T10:41:07;7.97;;;5.22;;
13208;SDS011;6669;42.678;23.332;2023-05-16T10:43:36;9.00;;;5.10;;
13208;SDS011;6669;42.678;23.332;2023-05-16T10:46:05;11.80;;;5.05;;
13208;SDS011;6669;42.678;23.332;2023-05-16T10:48:36;6.20;;;4.90;;
13208;SDS011;6669;42.678;23.332;2023-05-16T10:54:06;6.10;;;4.80;;
13208;SDS011;6669;42.678;23.332;2023-05-16T10:56:36;6.72;;;5.22;;
13208;SDS011;6669;42.678;23.332;2023-05-16T10:59:04;5.68;;;5.07;;
13208;SDS011;6669;42.678;23.332;2023-05-16T11:01:52;7.32;;;4.88;;
13208;SDS011;6669;42.678;23.332;2023-05-16T11:04:21;7.60;;;4.97;;
13208;SDS011;6669;42.678;23.332;2023-05-16T11:06:50;5.60;;;5.15;;
13208;SDS011;6669;42.678;23.332;2023-05-16T11:09:20;7.28;;;4.95;;
13208;SDS011;6669;42.678;23.332;2023-05-16T11:14:37;7.97;;;5.18;;
13208;SDS011;6669;42.678;23.332;2023-05-16T11:17:10;8.93;;;5.25;;
13208;SDS011;6669;42.678;23.332;2023-05-16T11:19:42;6.38;;;5.00;;
13208;SDS011;6669;42.678;23.332;2023-05-16T11:22:22;9.27;;;6.43;;
13208;SDS011;6669;42.678;23.332;2023-05-16T11:24:53;8.27;;;6.40;;
13208;SDS011;6669;42.678;23.332;2023-05-16T11:27:24;7.57;;;5.63;;
13208;SDS011;6669;42.678;23.332;2023-05-16T11:29:54;8.60;;;5.80;;
13208;SDS011;6669;42.678;23.332;2023-05-16T11:32:30;5.40;;;4.90;;
13208;SDS011;6669;42.678;23.332;2023-05-16T11:35:01;8.88;;;5.53;;
13208;SDS011;6669;42.678;23.332;2023-05-16T11:37:30;5.93;;;5.30;;
13208;SDS011;6669;42.678;23.332;2023-05-16T11:39:58;6.70;;;5.05;;
13208;SDS011;6669;42.678;23.332;2023-05-16T11:42:28;6.70;;;5.90;;
13208;SDS011;6669;42.678;23.332;2023-05-16T11:45:03;18.10;;;8.15;;
13208;SDS011;6669;42.678;23.332;2023-05-16T11:47:34;10.48;;;6.75;;
13208;SDS011;6669;42.678;23.332;2023-05-16T11:50:04;7.30;;;6.38;;
13208;SDS011;6669;42.678;23.332;2023-05-16T11:52:33;5.75;;;4.97;;
13208;SDS011;6669;42.678;23.332;2023-05-16T11:55:01;6.72;;;5.10;;
13208;SDS011;6669;42.678;23.332;2023-05-16T11:57:31;8.00;;;5.40;;
13208;SDS011;6669;42.678;23.332;2023-05-16T12:00:01;8.05;;;5.30;;
13208;SDS011;6669;42.678;23.332;2023-05-16T12:02:31;10.15;;;5.60;;
13208;SDS011;6669;42.678;23.332;2023-05-16T12:05:05;8.13;;;5.28;;
13208;SDS011;6669;42.678;23.332;2023-05-16T12:07:35;9.57;;;5.85;;
13208;SDS011;6669;42.678;23.332;2023-05-16T12:10:04;8.75;;;5.18;;
13208;SDS011;6669;42.678;23.332;2023-05-16T12:12:33;10.05;;;6.22;;
13208;SDS011;6669;42.678;23.332;2023-05-16T12:15:02;8.23;;;6.00;;
13208;SDS011;6669;42.678;23.332;2023-05-16T12:17:31;10.73;;;5.63;;
13208;SDS011;6669;42.678;23.332;2023-05-16T12:20:03;10.55;;;5.55;;
13208;SDS011;6669;42.678;23.332;2023-05-16T12:22:33;7.80;;;5.25;;
13208;SDS011;6669;42.678;23.332;2023-05-16T12:27:52;10.23;;;5.07;;
13208;SDS011;6669;42.678;23.332;2023-05-16T12:30:21;6.72;;;5.05;;
13208;SDS011;6669;42.678;23.332;2023-05-16T12:32:52;6.80;;;4.93;;
13208;SDS011;6669;42.678;23.332;2023-05-16T12:35:23;8.88;;;4.95;;
13208;SDS011;6669;42.678;23.332;2023-05-16T12:37:51;8.23;;;4.57;;
13208;SDS011;6669;42.678;23.332;2023-05-16T12:40:21;8.45;;;4.45;;
13208;SDS011;6669;42.678;23.332;2023-05-16T12:42:49;6.97;;;4.90;;
13208;SDS011;6669;42.678;23.332;2023-05-16T12:45:18;7.50;;;5.07;;
13208;SDS011;6669;42.678;23.332;2023-05-16T12:47:46;7.00;;;4.78;;
13208;SDS011;6669;42.678;23.332;2023-05-16T12:50:15;11.15;;;4.97;;
13208;SDS011;6669;42.678;23.332;2023-05-16T12:52:47;7.78;;;5.38;;
13208;SDS011;6669;42.678;23.332;2023-05-16T12:55:17;8.68;;;4.82;;
13208;SDS011;6669;42.678;23.332;2023-05-16T12:57:46;8.05;;;4.60;;
13208;SDS011;6669;42.678;23.332;2023-05-16T13:00:15;6.90;;;4.90;;
13208;SDS011;6669;42.678;23.332;2023-05-16T13:02:45;5.82;;;4.70;;
13208;SDS011;6669;42.678;23.332;2023-05-16T13:05:15;8.45;;;4.78;;
13208;SDS011;6669;42.678;23.332;2023-05-16T13:07:44;9.20;;;5.30;;
13208;SDS011;6669;42.678;23.332;2023-05-16T13:10:12;8.27;;;5.57;;
13208;SDS011;6669;42.678;23.332;2023-05-16T13:12:40;8.07;;;5.00;;
13208;SDS011;6669;42.678;23.332;2023-05-16T13:15:09;9.25;;;5.78;;
13208;SDS011;6669;42.678;23.332;2023-05-16T13:17:38;9.63;;;5.38;;
13208;SDS011;6669;42.678;23.332;2023-05-16T13:20:07;7.63;;;5.05;;
13208;SDS011;6669;42.678;23.332;2023-05-16T13:22:40;8.35;;;5.65;;
13208;SDS011;6669;42.678;23.332;2023-05-16T13:25:10;6.85;;;5.25;;
13208;SDS011;6669;42.678;23.332;2023-05-16T13:27:38;5.85;;;5.22;;
13208;SDS011;6669;42.678;23.332;2023-05-16T13:30:07;7.90;;;5.97;;
13208;SDS011;6669;42.678;23.332;2023-05-16T13:32:37;7.10;;;4.82;;
13208;SDS011;6669;42.678;23.332;2023-05-16T13:35:05;6.45;;;5.63;;
13208;SDS011;6669;42.678;23.332;2023-05-16T13:37:35;9.13;;;5.63;;
13208;SDS011;6669;42.678;23.332;2023-05-16T13:40:06;9.48;;;5.55;;
13208;SDS011;6669;42.678;23.332;2023-05-16T13:42:36;6.13;;;5.43;;
13208;SDS011;6669;42.678;23.332;2023-05-16T13:45:05;9.18;;;5.55;;
13208;SDS011;6669;42.678;23.332;2023-05-16T13:47:34;10.63;;;5.13;;
13208;SDS011;6669;42.678;23.332;2023-05-16T13:50:03;8.27;;;5.50;;
13208;SDS011;6669;42.678;23.332;2023-05-16T13:52:35;10.82;;;6.10;;
13208;SDS011;6669;42.678;23.332;2023-05-16T13:55:06;11.32;;;6.00;;
13208;SDS011;6669;42.678;23.332;2023-05-16T13:57:35;8.65;;;5.40;;
13208;SDS011;6669;42.678;23.332;2023-05-16T14:00:03;9.23;;;5.45;;
13208;SDS011;6669;42.678;23.332;2023-05-16T14:02:57;9.55;;;6.50;;
13208;SDS011;6669;42.678;23.332;2023-05-16T14:05:26;11.40;;;5.68;;
13208;SDS011;6669;42.678;23.332;2023-05-16T14:07:55;9.30;;;6.00;;
13208;SDS011;6669;42.678;23.332;2023-05-16T14:10:24;6.93;;;5.15;;
13208;SDS011;6669;42.678;23.332;2023-05-16T14:12:53;14.85;;;5.90;;
13208;SDS011;6669;42.678;23.332;2023-05-16T14:15:21;10.55;;;6.28;;
13208;SDS011;6669;42.678;23.332;2023-05-16T14:17:49;8.68;;;7.32;;
13208;SDS011;6669;42.678;23.332;2023-05-16T14:20:17;9.25;;;7.35;;
13208;SDS011;6669;42.678;23.332;2023-05-16T14:22:45;10.15;;;7.97;;
13208;SDS011;6669;42.678;23.332;2023-05-16T14:25:13;9.35;;;7.90;;
13208;SDS011;6669;42.678;23.332;2023-05-16T14:27:43;10.80;;;8.15;;
13208;SDS011;6669;42.678;23.332;2023-05-16T14:30:11;12.63;;;7.88;;
13208;SDS011;6669;42.678;23.332;2023-05-16T14:32:40;12.00;;;8.30;;
13208;SDS011;6669;42.678;23.332;2023-05-16T14:35:08;13.38;;;8.20;;
13208;SDS011;6669;42.678;23.332;2023-05-16T14:37:36;11.15;;;8.15;;
13208;SDS011;6669;42.678;23.332;2023-05-16T14:40:05;12.00;;;8.40;;
13208;SDS011;6669;42.678;23.332;2023-05-16T14:42:34;10.05;;;7.35;;
13208;SDS011;6669;42.678;23.332;2023-05-16T14:45:04;8.68;;;7.30;;
13208;SDS011;6669;42.678;23.332;2023-05-16T14:47:33;8.73;;;7.78;;
13208;SDS011;6669;42.678;23.332;2023-05-16T14:50:01;13.32;;;7.93;;
13208;SDS011;6669;42.678;23.332;2023-05-16T14:52:30;11.90;;;9.68;;
13208;SDS011;6669;42.678;23.332;2023-05-16T14:54:58;11.77;;;8.02;;
13208;SDS011;6669;42.678;23.332;2023-05-16T14:57:26;11.07;;;8.40;;
13208;SDS011;6669;42.678;23.332;2023-05-16T14:59:54;16.20;;;9.30;;
13208;SDS011;6669;42.678;23.332;2023-05-16T15:02:25;15.23;;;8.95;;
13208;SDS011;6669;42.678;23.332;2023-05-16T15:04:53;11.10;;;8.35;;